Glenwild, Louisiana
Current Conditions -  °F | °C
As of 3:35 PM on Friday 24 Oct 2014 (Local Time) from KPTN Reporting Station
Clear Clear  
Wind Chill: 75°   Ceiling: Unl
Heat Index: 75°   Visibility: 10mi
Dew Point: 52°   Wind: 5mph
Humidity: 44%   Direction: 330°NNW
Pressure: 30.08"   Gusts: NA
Location:  29.6395°N, 91.1648°W
Report Text: KPTN 242035Z AUTO 33004KT 10SM CLR 24/11 A3008 RMK AO1
Loading
Personal Weather Stations






























Interactive Weather Map
Tropical Storm Tracking
New forecast layout! Learn more

10-Day Weather Forecast

Advertisements
Track Severe Weather on mobile